createdAt,value
2022-09-14T00:01:40.388Z,1.63
2022-09-14T00:04:16.661Z,1.90
2022-09-14T00:06:44.788Z,1.85
2022-09-14T00:09:23.213Z,2.08
2022-09-14T00:11:51.406Z,1.70
2022-09-14T00:14:19.751Z,1.75
2022-09-14T00:16:47.378Z,1.90
2022-09-14T00:19:25.776Z,2.10
2022-09-14T00:21:57.200Z,1.60
2022-09-14T00:24:30.080Z,2.22
2022-09-14T00:26:57.694Z,1.80
2022-09-14T00:29:25.077Z,1.88
2022-09-14T00:31:52.703Z,1.60
2022-09-14T00:34:20.388Z,2.25
2022-09-14T00:36:51.361Z,1.90
2022-09-14T00:39:23.502Z,1.63
2022-09-14T00:41:52.434Z,1.40
2022-09-14T00:44:19.472Z,1.73
2022-09-14T00:46:51.273Z,1.92
2022-09-14T00:49:36.314Z,1.67
2022-09-14T00:52:19.397Z,2.03
2022-09-14T00:54:58.490Z,1.48
2022-09-14T00:57:31.397Z,1.55
2022-09-14T00:59:59.500Z,1.55
2022-09-14T01:02:28.473Z,1.40
2022-09-14T01:04:56.484Z,1.42
2022-09-14T01:08:18.931Z,1.70
2022-09-14T01:15:10.480Z,1.77
2022-09-14T01:18:25.520Z,1.77
2022-09-14T01:21:23.049Z,1.83
2022-09-14T01:24:25.680Z,1.77
2022-09-14T01:26:58.770Z,1.60
2022-09-14T01:29:41.923Z,1.90
2022-09-14T01:32:33.262Z,1.70
2022-09-14T01:35:21.487Z,1.60
2022-09-14T01:38:05.054Z,1.75
2022-09-14T01:40:46.047Z,1.85
2022-09-14T01:43:41.343Z,1.75
2022-09-14T01:46:21.964Z,1.57
2022-09-14T01:48:59.403Z,1.70
2022-09-14T01:51:39.482Z,1.70
2022-09-14T01:54:25.352Z,1.48
2022-09-14T01:57:01.345Z,2.00
2022-09-14T01:59:36.522Z,2.25
2022-09-14T02:02:59.977Z,1.65
2022-09-14T02:05:56.778Z,1.48
2022-09-14T02:08:28.445Z,1.77
2022-09-14T02:10:57.911Z,1.63
2022-09-14T02:13:26.805Z,1.67
2022-09-14T02:15:54.502Z,1.88
2022-09-14T02:18:22.496Z,1.60
2022-09-14T02:21:09.423Z,1.58
2022-09-14T02:23:37.542Z,1.80
2022-09-14T02:26:05.415Z,1.70
2022-09-14T02:28:33.014Z,2.00
2022-09-14T02:32:09.613Z,1.60
2022-09-14T02:35:23.868Z,1.50
2022-09-14T02:38:35.413Z,2.10
2022-09-14T02:41:50.532Z,2.00
2022-09-14T02:44:38.031Z,1.98
2022-09-14T02:47:24.961Z,1.83
2022-09-14T02:50:51.279Z,1.77
2022-09-14T02:53:43.442Z,1.65
2022-09-14T02:56:12.641Z,2.08
2022-09-14T02:58:44.528Z,2.15
2022-09-14T03:01:19.485Z,2.15
2022-09-14T03:03:47.041Z,1.90
2022-09-14T03:06:14.898Z,2.60
2022-09-14T03:08:42.787Z,2.28
2022-09-14T03:11:10.766Z,2.30
2022-09-14T03:13:38.741Z,2.25
2022-09-14T03:16:17.942Z,3.08
2022-09-14T03:18:45.484Z,2.55
2022-09-14T03:21:17.330Z,2.65
2022-09-14T03:23:51.624Z,2.40
2022-09-14T03:26:22.821Z,2.70
2022-09-14T03:28:59.357Z,3.13
2022-09-14T03:31:27.720Z,2.55
2022-09-14T03:33:57.824Z,2.83
2022-09-14T03:36:28.450Z,2.70
2022-09-14T03:38:59.970Z,2.40
2022-09-14T03:41:27.989Z,2.42
2022-09-14T03:43:55.281Z,3.08
2022-09-14T03:46:25.220Z,2.63
2022-09-14T03:48:54.352Z,2.40
2022-09-14T03:51:21.869Z,3.03
2022-09-14T03:53:49.283Z,3.00
2022-09-14T03:56:21.110Z,2.72
2022-09-14T03:58:50.200Z,2.70
2022-09-14T04:01:21.996Z,2.50
2022-09-14T04:03:50.544Z,2.45
2022-09-14T04:06:19.450Z,2.22
2022-09-14T04:08:48.162Z,2.42
2022-09-14T04:11:19.345Z,2.58
2022-09-14T04:13:47.533Z,2.67
2022-09-14T04:16:17.430Z,2.70
2022-09-14T04:18:44.945Z,3.55
2022-09-14T04:21:20.782Z,2.67
2022-09-14T04:24:13.309Z,2.60
2022-09-14T04:26:36.071Z,3.28
2022-09-14T04:29:03.623Z,3.47
2022-09-14T04:31:31.504Z,3.50
2022-09-14T04:33:58.929Z,3.95
2022-09-14T04:36:31.288Z,2.90
2022-09-14T04:39:03.729Z,3.00
2022-09-14T04:41:32.273Z,3.50
2022-09-14T04:44:00.694Z,3.05
2022-09-14T04:46:32.712Z,3.22
2022-09-14T04:48:59.922Z,3.22
2022-09-14T04:51:31.131Z,3.63
2022-09-14T04:54:01.328Z,3.58
2022-09-14T04:56:33.253Z,2.97
2022-09-14T04:59:04.154Z,3.40
2022-09-14T05:01:42.951Z,3.17
2022-09-14T05:04:11.929Z,3.22
2022-09-14T05:06:42.167Z,3.00
2022-09-14T05:09:16.937Z,3.15
2022-09-14T05:11:45.939Z,3.40
2022-09-14T05:14:14.562Z,3.40
2022-09-14T05:16:43.998Z,3.35
2022-09-14T05:19:17.469Z,3.20
2022-09-14T05:21:46.056Z,3.22
2022-09-14T05:24:17.977Z,4.05
2022-09-14T05:26:46.797Z,4.40
2022-09-14T05:29:18.534Z,4.25
2022-09-14T05:31:46.207Z,3.92
2022-09-14T05:34:13.975Z,3.70
2022-09-14T05:36:41.921Z,4.25
2022-09-14T05:39:13.148Z,3.80
2022-09-14T05:41:40.887Z,3.65
2022-09-14T05:44:08.267Z,3.53
2022-09-14T05:46:35.952Z,3.40
2022-09-14T05:49:04.153Z,4.18
2022-09-14T05:51:31.398Z,3.50
2022-09-14T05:54:00.029Z,3.47
2022-09-14T05:56:31.666Z,3.20
2022-09-14T05:59:00.199Z,4.07
2022-09-14T06:01:32.654Z,3.53
2022-09-14T06:04:02.542Z,3.65
2022-09-14T06:06:32.274Z,3.67
2022-09-14T06:09:00.359Z,3.53
2022-09-14T06:11:33.105Z,2.90
2022-09-14T06:14:00.790Z,3.22
2022-09-14T06:16:29.393Z,3.75
2022-09-14T06:18:59.457Z,3.15
2022-09-14T06:21:34.991Z,6.43
2022-09-14T06:24:03.360Z,4.10
2022-09-14T06:26:30.990Z,4.65
2022-09-14T06:28:58.519Z,5.32
2022-09-14T06:31:25.972Z,4.85
2022-09-14T06:33:53.633Z,4.93
2022-09-14T06:36:27.664Z,4.63
2022-09-14T06:38:56.185Z,5.05
2022-09-14T06:41:29.049Z,4.97
2022-09-14T06:43:59.479Z,4.28
2022-09-14T06:46:32.236Z,4.47
2022-09-14T06:49:08.216Z,4.05
2022-09-14T06:51:42.849Z,4.63
2022-09-14T06:54:13.884Z,4.63
2022-09-14T06:56:44.240Z,4.75
2022-09-14T06:59:15.678Z,4.55
2022-09-14T07:01:45.578Z,3.85
2022-09-14T07:04:14.288Z,3.63
2022-09-14T07:06:50.012Z,10.75
2022-09-14T07:09:19.948Z,5.07
2022-09-14T07:11:47.597Z,3.65
2022-09-14T07:14:16.583Z,3.63
2022-09-14T07:16:44.069Z,3.53
2022-09-14T07:19:14.285Z,3.80
2022-09-14T07:21:42.959Z,2.85
2022-09-14T07:24:14.792Z,3.45
2022-09-14T07:26:43.064Z,3.95
2022-09-14T07:29:19.091Z,4.00
2022-09-14T07:31:53.765Z,4.63
2022-09-14T07:34:21.797Z,3.75
2022-09-14T07:36:49.014Z,5.97
2022-09-14T07:39:17.976Z,5.63
2022-09-14T07:41:45.557Z,5.28
2022-09-14T07:44:17.636Z,5.10
2022-09-14T07:46:46.718Z,5.03
2022-09-14T07:49:15.822Z,5.35
2022-09-14T07:51:43.909Z,5.20
2022-09-14T07:54:15.254Z,4.95
2022-09-14T07:56:43.586Z,5.35
2022-09-14T07:59:34.926Z,4.38
2022-09-14T08:02:02.919Z,4.30
2022-09-14T08:04:30.295Z,4.40
2022-09-14T08:06:57.889Z,4.60
2022-09-14T08:09:25.851Z,4.30
2022-09-14T08:11:53.112Z,4.72
2022-09-14T08:14:20.638Z,4.63
2022-09-14T08:16:47.976Z,4.32
2022-09-14T08:19:20.306Z,3.72
2022-09-14T08:21:48.399Z,4.32
2022-09-14T08:24:20.095Z,3.85
2022-09-14T08:26:48.756Z,4.10
2022-09-14T08:29:18.769Z,4.28
2022-09-14T08:31:47.328Z,3.85
2022-09-14T08:34:17.237Z,3.50
2022-09-14T08:36:47.174Z,3.08
2022-09-14T08:39:16.539Z,3.40
2022-09-14T08:41:43.563Z,4.35
2022-09-14T08:44:43.314Z,4.25
2022-09-14T08:47:36.677Z,2.97
2022-09-14T08:50:14.507Z,3.25
2022-09-14T08:52:47.795Z,3.60
2022-09-14T08:55:35.721Z,3.47
2022-09-14T08:58:53.879Z,3.38
2022-09-14T09:01:48.671Z,3.38
2022-09-14T09:04:39.964Z,3.90
2022-09-14T09:07:26.607Z,3.60
2022-09-14T09:09:57.934Z,3.40
2022-09-14T09:12:57.381Z,3.13
2022-09-14T09:15:45.093Z,3.22
2022-09-14T09:19:00.266Z,3.17
2022-09-14T09:21:48.225Z,3.10
2022-09-14T09:24:42.047Z,3.28
2022-09-14T09:27:15.937Z,3.33
2022-09-14T09:29:43.667Z,3.83
2022-09-14T09:32:25.826Z,3.28
2022-09-14T09:35:22.553Z,3.47
2022-09-14T09:37:59.370Z,3.40
2022-09-14T09:40:35.894Z,3.42
2022-09-14T09:43:24.262Z,3.80
2022-09-14T09:46:06.978Z,3.75
2022-09-14T09:48:44.282Z,3.42
2022-09-14T09:51:33.453Z,3.85
2022-09-14T09:54:12.526Z,3.53
2022-09-14T09:57:31.052Z,3.70
2022-09-14T10:00:14.155Z,4.15
2022-09-14T10:02:42.064Z,4.43
2022-09-14T10:05:09.152Z,3.42
2022-09-14T10:08:01.035Z,3.67
2022-09-14T10:10:40.093Z,3.10
2022-09-14T10:13:28.974Z,3.40
2022-09-14T10:16:18.797Z,3.58
2022-09-14T10:18:52.883Z,3.65
2022-09-14T10:21:24.289Z,4.07
2022-09-14T10:24:21.968Z,4.32
2022-09-14T10:26:49.238Z,5.13
2022-09-14T10:29:35.713Z,4.35
2022-09-14T10:32:22.247Z,4.40
2022-09-14T10:34:51.109Z,5.22
2022-09-14T10:37:43.633Z,4.72
2022-09-14T10:40:19.051Z,5.38
2022-09-14T10:43:23.113Z,4.80
2022-09-14T10:46:02.752Z,5.22
2022-09-14T10:49:33.583Z,5.20
2022-09-14T10:53:05.385Z,6.32
2022-09-14T10:55:50.369Z,5.38
2022-09-14T10:58:35.680Z,7.60
2022-09-14T11:02:04.737Z,6.70
2022-09-14T11:05:12.388Z,5.47
2022-09-14T11:08:00.096Z,5.32
2022-09-14T11:10:45.343Z,5.88
2022-09-14T11:13:52.472Z,5.43
2022-09-14T11:16:47.892Z,5.00
2022-09-14T11:19:57.395Z,4.65
2022-09-14T11:22:55.367Z,3.83
2022-09-14T11:25:46.977Z,4.18
2022-09-14T11:28:31.547Z,3.00
2022-09-14T11:31:26.388Z,3.47
2022-09-14T11:34:16.993Z,3.65
2022-09-14T11:37:00.280Z,3.20
2022-09-14T11:39:39.013Z,3.30
2022-09-14T11:42:25.685Z,2.90
2022-09-14T11:45:05.656Z,3.35
2022-09-14T11:47:44.578Z,2.42
2022-09-14T11:50:25.815Z,3.33
2022-09-14T11:53:14.809Z,2.42
2022-09-14T11:55:49.794Z,2.50
2022-09-14T12:01:21.577Z,2.13
2022-09-14T12:03:59.739Z,2.75
2022-09-14T12:06:36.079Z,2.42
2022-09-14T12:09:20.851Z,2.17
2022-09-14T12:11:55.432Z,2.70
2022-09-14T12:14:28.733Z,1.90
2022-09-14T12:17:38.719Z,2.70
2022-09-14T12:20:44.898Z,2.80
2022-09-14T12:23:38.741Z,2.63
2022-09-14T12:26:12.179Z,2.90
2022-09-14T12:28:50.493Z,2.72
2022-09-14T12:31:56.177Z,2.70
2022-09-14T12:34:31.914Z,2.80
2022-09-14T12:37:31.976Z,2.03
2022-09-14T12:40:20.837Z,3.65
2022-09-14T12:42:48.144Z,2.10
2022-09-14T12:46:03.453Z,2.10
2022-09-14T12:49:24.144Z,2.15
2022-09-14T12:51:52.116Z,3.00
2022-09-14T12:55:05.263Z,2.05
2022-09-14T12:58:10.718Z,1.60
2022-09-14T13:01:18.185Z,2.22
2022-09-14T13:03:54.988Z,2.05
2022-09-14T13:06:30.451Z,2.13
2022-09-14T13:08:59.488Z,2.00
2022-09-14T13:11:41.226Z,2.53
2022-09-14T13:14:18.700Z,2.13
2022-09-14T13:16:50.269Z,2.10
2022-09-14T13:19:30.452Z,1.98
2022-09-14T13:22:01.986Z,1.92
2022-09-14T13:24:47.037Z,1.85
2022-09-14T13:27:36.302Z,2.22
2022-09-14T13:30:22.802Z,2.17
2022-09-14T13:32:54.717Z,3.08
2022-09-14T13:35:46.822Z,1.90
2022-09-14T13:38:23.888Z,2.00
2022-09-14T13:40:55.306Z,2.25
2022-09-14T13:43:23.411Z,2.35
2022-09-14T13:45:52.385Z,2.00
2022-09-14T13:48:21.078Z,2.17
2022-09-14T13:50:51.940Z,2.40
2022-09-14T13:53:51.180Z,2.28
2022-09-14T13:56:32.483Z,2.42
2022-09-14T13:59:09.084Z,1.80
2022-09-14T14:02:12.919Z,1.73
2022-09-14T14:04:40.197Z,1.92
2022-09-14T14:07:31.301Z,1.70
2022-09-14T14:10:00.181Z,2.40
2022-09-14T14:12:39.536Z,1.80
2022-09-14T14:15:26.744Z,2.13
2022-09-14T14:17:54.917Z,1.92
2022-09-14T14:20:32.035Z,2.03
2022-09-14T14:23:11.412Z,1.92
2022-09-14T14:25:52.186Z,1.92
2022-09-14T14:28:31.965Z,1.75
2022-09-14T14:31:09.866Z,2.25
2022-09-14T14:33:51.377Z,1.63
2022-09-14T14:36:19.314Z,1.65
2022-09-14T14:38:47.966Z,2.45
2022-09-14T14:41:20.759Z,2.00
2022-09-14T14:43:50.819Z,1.98
2022-09-14T14:46:18.336Z,2.20
2022-09-14T14:48:45.634Z,1.92
2022-09-14T14:51:15.124Z,2.00
2022-09-14T14:53:43.246Z,2.22
2022-09-14T14:56:13.030Z,2.58
2022-09-14T14:58:47.081Z,2.17
2022-09-14T15:01:14.699Z,2.00
2022-09-14T15:03:42.104Z,2.08
2022-09-14T15:06:27.881Z,2.03
2022-09-14T15:08:56.642Z,1.73
2022-09-14T15:11:24.062Z,1.77
2022-09-14T15:13:51.329Z,2.10
2022-09-14T15:16:18.862Z,1.92
2022-09-14T15:18:46.166Z,2.30
2022-09-14T15:21:13.432Z,2.08
2022-09-14T15:23:40.762Z,2.45
2022-09-14T15:26:08.254Z,2.60
2022-09-14T15:28:38.513Z,2.55
2022-09-14T15:31:08.035Z,2.78
2022-09-14T15:33:35.450Z,2.60
2022-09-14T15:36:03.384Z,3.40
2022-09-14T15:38:30.738Z,3.15
2022-09-14T15:40:57.973Z,3.80
2022-09-14T15:43:25.149Z,3.35
2022-09-14T15:45:52.520Z,3.50
2022-09-14T15:48:20.052Z,3.17
2022-09-14T15:50:48.754Z,3.30
2022-09-14T15:53:18.341Z,2.97
2022-09-14T15:55:45.991Z,3.50
2022-09-14T15:58:13.569Z,3.60
2022-09-14T16:00:45.054Z,4.43
2022-09-14T16:03:12.902Z,3.80
2022-09-14T16:05:40.288Z,4.18
2022-09-14T16:08:07.726Z,3.80
2022-09-14T16:10:34.958Z,4.05
2022-09-14T16:13:02.326Z,3.90
2022-09-14T16:15:29.561Z,3.95
2022-09-14T16:17:56.903Z,3.70
2022-09-14T16:20:24.421Z,4.65
2022-09-14T16:22:51.765Z,4.07
2022-09-14T16:25:19.034Z,5.03
2022-09-14T16:27:46.314Z,3.63
2022-09-14T16:30:13.636Z,3.80
2022-09-14T16:32:40.834Z,3.95
2022-09-14T16:35:08.627Z,3.65
2022-09-14T16:37:35.992Z,3.30
2022-09-14T16:40:04.501Z,3.53
2022-09-14T16:42:31.707Z,3.38
2022-09-14T16:44:58.968Z,4.07
2022-09-14T16:47:26.320Z,4.47
2022-09-14T16:49:53.781Z,4.50
2022-09-14T16:52:21.013Z,4.63
2022-09-14T16:54:48.185Z,4.57
2022-09-14T16:57:15.481Z,4.72
2022-09-14T16:59:42.888Z,5.20
2022-09-14T17:02:11.683Z,5.38
2022-09-14T17:04:38.932Z,5.00
2022-09-14T17:07:06.229Z,5.70
2022-09-14T17:09:34.224Z,5.93
2022-09-14T17:12:01.665Z,6.55
2022-09-14T17:14:33.440Z,6.90
2022-09-14T17:17:00.816Z,8.93
2022-09-14T17:19:28.618Z,6.57
2022-09-14T17:21:55.976Z,7.40
2022-09-14T17:24:24.067Z,8.80
2022-09-14T17:26:51.278Z,8.80
2022-09-14T17:29:18.652Z,8.05
2022-09-14T17:31:46.513Z,8.57
2022-09-14T17:34:16.803Z,7.57
2022-09-14T17:36:45.518Z,7.18
2022-09-14T17:39:15.285Z,8.25
2022-09-14T17:41:43.885Z,10.63
2022-09-14T17:44:14.758Z,9.82
2022-09-14T17:46:51.634Z,9.10
2022-09-14T17:49:22.173Z,9.38
2022-09-14T17:51:50.909Z,9.13
2022-09-14T17:54:19.495Z,9.35
2022-09-14T17:56:47.238Z,8.80
2022-09-14T17:59:20.387Z,8.40
2022-09-14T18:01:50.065Z,8.75
2022-09-14T18:04:18.307Z,8.70
2022-09-14T18:06:49.882Z,8.60
2022-09-14T18:09:22.499Z,8.35
2022-09-14T18:11:50.797Z,8.32
2022-09-14T18:14:19.342Z,7.30
2022-09-14T18:16:46.824Z,8.57
2022-09-14T18:19:15.347Z,8.23
2022-09-14T18:21:43.361Z,10.18
2022-09-14T18:24:12.154Z,8.07
2022-09-14T18:26:39.375Z,9.05
2022-09-14T18:29:07.384Z,9.25
2022-09-14T18:31:34.622Z,9.57
2022-09-14T18:34:02.457Z,9.35
2022-09-14T18:36:30.517Z,8.65
2022-09-14T18:38:58.770Z,9.70
2022-09-14T18:41:31.284Z,10.65
2022-09-14T18:43:59.115Z,11.95
2022-09-14T18:46:28.588Z,11.68
2022-09-14T18:49:00.926Z,10.57
2022-09-14T18:51:31.833Z,11.05
2022-09-14T18:54:04.355Z,10.35
2022-09-14T18:56:33.292Z,11.80
2022-09-14T18:59:03.345Z,11.73
2022-09-14T19:01:32.653Z,10.43
2022-09-14T19:04:06.570Z,11.35
2022-09-14T19:06:38.668Z,11.13
2022-09-14T19:09:08.787Z,11.85
2022-09-14T19:11:39.497Z,12.17
2022-09-14T19:14:12.853Z,9.93
2022-09-14T19:16:42.772Z,10.82
2022-09-14T19:19:23.202Z,10.40
2022-09-14T19:22:02.349Z,9.57
2022-09-14T19:24:41.402Z,10.88
2022-09-14T19:27:15.289Z,11.05
2022-09-14T19:29:55.234Z,10.80
2022-09-14T19:32:37.458Z,12.43
2022-09-14T19:35:09.866Z,13.52
2022-09-14T19:38:00.729Z,14.15
2022-09-14T19:40:35.453Z,13.60
2022-09-14T19:46:26.432Z,15.27
2022-09-14T19:49:05.828Z,13.68
2022-09-14T19:51:48.983Z,13.80
2022-09-14T19:54:21.796Z,14.25
2022-09-14T19:56:55.610Z,13.05
2022-09-14T19:59:23.303Z,12.95
2022-09-14T20:01:50.981Z,13.18
2022-09-14T20:04:22.930Z,13.32
2022-09-14T20:07:08.472Z,13.63
2022-09-14T20:09:46.685Z,14.60
2022-09-14T20:12:18.936Z,14.45
2022-09-14T20:14:57.941Z,14.00
2022-09-14T20:17:37.422Z,13.15
2022-09-14T20:20:11.692Z,13.68
2022-09-14T20:22:50.331Z,13.82
2022-09-14T20:25:26.862Z,12.95
2022-09-14T20:30:42.792Z,13.68
2022-09-14T20:33:18.587Z,14.40
2022-09-14T20:36:16.713Z,13.95
2022-09-14T20:38:56.017Z,13.98
2022-09-14T20:41:47.414Z,12.43
2022-09-14T20:44:25.422Z,13.57
2022-09-14T20:47:10.234Z,14.15
2022-09-14T20:49:49.226Z,13.65
2022-09-14T20:52:26.130Z,13.75
2022-09-14T20:55:05.590Z,12.88
2022-09-14T20:57:34.219Z,12.38
2022-09-14T21:00:01.475Z,11.95
2022-09-14T21:02:32.622Z,10.98
2022-09-14T21:05:00.072Z,11.05
2022-09-14T21:07:27.334Z,10.55
2022-09-14T21:09:54.678Z,10.02
2022-09-14T21:12:22.028Z,10.57
2022-09-14T21:14:49.287Z,9.68
2022-09-14T21:17:17.584Z,8.85
2022-09-14T21:19:44.844Z,8.68
2022-09-14T21:22:12.050Z,9.30
2022-09-14T21:24:39.347Z,8.25
2022-09-14T21:27:07.648Z,8.00
2022-09-14T21:29:34.797Z,8.80
2022-09-14T21:32:06.838Z,8.82
2022-09-14T21:34:35.980Z,9.98
2022-09-14T21:37:03.117Z,11.00
2022-09-14T21:39:30.249Z,10.05
2022-09-14T21:41:59.675Z,11.00
2022-09-14T21:44:37.778Z,11.20
2022-09-14T21:47:05.516Z,10.90
2022-09-14T21:49:32.897Z,11.35
2022-09-14T21:52:00.188Z,11.27
2022-09-14T21:54:27.913Z,10.20
2022-09-14T21:56:55.125Z,10.18
2022-09-14T21:59:23.820Z,10.73
2022-09-14T22:01:51.467Z,10.43
2022-09-14T22:04:24.093Z,10.18
2022-09-14T22:06:53.094Z,9.63
2022-09-14T22:09:25.059Z,9.73
2022-09-14T22:11:53.270Z,9.43
2022-09-14T22:14:28.066Z,9.43
2022-09-14T22:16:56.127Z,8.80
2022-09-14T22:19:32.063Z,10.50
2022-09-14T22:21:59.700Z,11.10
2022-09-14T22:24:37.114Z,11.77
2022-09-14T22:27:08.808Z,13.68
2022-09-14T22:29:40.913Z,15.73
2022-09-14T22:32:11.844Z,15.32
2022-09-14T22:34:41.438Z,15.90
2022-09-14T22:37:08.954Z,16.88
2022-09-14T22:39:36.510Z,16.58
2022-09-14T22:42:04.048Z,16.38
2022-09-14T22:44:31.529Z,15.52
2022-09-14T22:46:58.866Z,17.45
2022-09-14T22:49:26.062Z,13.13
2022-09-14T22:51:53.291Z,10.85
2022-09-14T22:54:20.532Z,8.57
2022-09-14T22:56:47.722Z,7.57
2022-09-14T22:59:14.945Z,6.95
2022-09-14T23:01:42.584Z,6.57
2022-09-14T23:04:13.585Z,4.80
2022-09-14T23:06:48.240Z,4.47
2022-09-14T23:09:22.121Z,4.40
2022-09-14T23:11:50.390Z,5.35
2022-09-14T23:14:17.806Z,3.60
2022-09-14T23:16:45.672Z,3.60
2022-09-14T23:19:17.341Z,3.50
2022-09-14T23:21:45.636Z,3.75
2022-09-14T23:24:13.548Z,3.60
2022-09-14T23:26:41.756Z,3.83
2022-09-14T23:29:16.246Z,4.05
2022-09-14T23:31:44.265Z,4.10
2022-09-14T23:34:11.565Z,4.35
2022-09-14T23:36:38.755Z,5.20
2022-09-14T23:39:06.021Z,4.97
2022-09-14T23:41:33.377Z,5.40
2022-09-14T23:44:00.819Z,6.70
2022-09-14T23:46:28.267Z,5.65
2022-09-14T23:48:55.519Z,6.18
2022-09-14T23:51:24.540Z,6.80
2022-09-14T23:53:51.705Z,7.55
2022-09-14T23:56:18.997Z,7.00
2022-09-14T23:58:46.500Z,6.70
